sensor_id;sensor_type;location;lat;lon;timestamp;temperature;humidity
43607;DHT22;29197;44.788;10.366;2023-06-10T00:00:01;24.10;99.90
43607;DHT22;29197;44.788;10.366;2023-06-10T00:02:52;24.10;99.90
43607;DHT22;29197;44.788;10.366;2023-06-10T00:05:42;24.10;99.90
43607;DHT22;29197;44.788;10.366;2023-06-10T00:08:31;24.00;99.90
43607;DHT22;29197;44.788;10.366;2023-06-10T00:11:20;23.80;99.90
43607;DHT22;29197;44.788;10.366;2023-06-10T00:16:58;23.60;99.90
43607;DHT22;29197;44.788;10.366;2023-06-10T00:19:46;23.40;99.90
43607;DHT22;29197;44.788;10.366;2023-06-10T00:28:15;23.60;99.90
43607;DHT22;29197;44.788;10.366;2023-06-10T00:33:53;23.40;99.90
43607;DHT22;29197;44.788;10.366;2023-06-10T00:36:41;23.20;99.90
43607;DHT22;29197;44.788;10.366;2023-06-10T00:39:31;23.20;99.90
43607;DHT22;29197;44.788;10.366;2023-06-10T00:42:20;23.30;99.90
43607;DHT22;29197;44.788;10.366;2023-06-10T00:45:11;23.30;99.90
43607;DHT22;29197;44.788;10.366;2023-06-10T00:48:00;23.30;99.90
43607;DHT22;29197;44.788;10.366;2023-06-10T00:50:49;23.20;99.90
43607;DHT22;29197;44.788;10.366;2023-06-10T00:53:39;23.20;99.90
43607;DHT22;29197;44.788;10.366;2023-06-10T00:56:30;23.20;99.90
43607;DHT22;29197;44.788;10.366;2023-06-10T00:59:18;23.20;99.90
43607;DHT22;29197;44.788;10.366;2023-06-10T01:02:07;23.20;99.90
43607;DHT22;29197;44.788;10.366;2023-06-10T01:04:56;23.40;99.90
43607;DHT22;29197;44.788;10.366;2023-06-10T01:07:52;23.50;99.90
43607;DHT22;29197;44.788;10.366;2023-06-10T01:13:38;23.30;99.90
43607;DHT22;29197;44.788;10.366;2023-06-10T01:16:28;23.30;99.90
43607;DHT22;29197;44.788;10.366;2023-06-10T01:19:17;23.30;99.90
43607;DHT22;29197;44.788;10.366;2023-06-10T01:22:07;23.30;99.90
43607;DHT22;29197;44.788;10.366;2023-06-10T01:24:58;23.10;99.90
43607;DHT22;29197;44.788;10.366;2023-06-10T01:27:48;23.30;99.90
43607;DHT22;29197;44.788;10.366;2023-06-10T01:30:51;23.30;99.90
43607;DHT22;29197;44.788;10.366;2023-06-10T01:33:45;23.30;99.90
43607;DHT22;29197;44.788;10.366;2023-06-10T01:36:36;23.40;99.90
43607;DHT22;29197;44.788;10.366;2023-06-10T01:39:27;23.40;99.90
43607;DHT22;29197;44.788;10.366;2023-06-10T01:42:17;23.50;99.90
43607;DHT22;29197;44.788;10.366;2023-06-10T01:45:06;23.50;99.90
43607;DHT22;29197;44.788;10.366;2023-06-10T01:47:55;23.60;99.90
43607;DHT22;29197;44.788;10.366;2023-06-10T01:50:44;23.50;99.90
43607;DHT22;29197;44.788;10.366;2023-06-10T01:53:33;23.50;99.90
43607;DHT22;29197;44.788;10.366;2023-06-10T01:56:23;23.50;99.90
43607;DHT22;29197;44.788;10.366;2023-06-10T01:59:12;23.20;99.90
43607;DHT22;29197;44.788;10.366;2023-06-10T02:02:00;23.20;99.90
43607;DHT22;29197;44.788;10.366;2023-06-10T02:04:49;23.10;99.90
43607;DHT22;29197;44.788;10.366;2023-06-10T02:07:37;23.10;99.90
43607;DHT22;29197;44.788;10.366;2023-06-10T02:10:26;23.10;99.90
43607;DHT22;29197;44.788;10.366;2023-06-10T02:13:16;23.10;99.90
43607;DHT22;29197;44.788;10.366;2023-06-10T02:16:05;23.10;99.90
43607;DHT22;29197;44.788;10.366;2023-06-10T02:18:54;23.10;99.90
43607;DHT22;29197;44.788;10.366;2023-06-10T02:21:43;23.20;99.90
43607;DHT22;29197;44.788;10.366;2023-06-10T02:24:31;23.20;99.90
43607;DHT22;29197;44.788;10.366;2023-06-10T02:27:20;23.30;99.90
43607;DHT22;29197;44.788;10.366;2023-06-10T02:30:12;23.30;99.90
43607;DHT22;29197;44.788;10.366;2023-06-10T02:33:01;23.20;99.90
43607;DHT22;29197;44.788;10.366;2023-06-10T02:35:50;23.10;99.90
43607;DHT22;29197;44.788;10.366;2023-06-10T02:38:39;23.10;99.90
43607;DHT22;29197;44.788;10.366;2023-06-10T02:41:28;22.90;99.90
43607;DHT22;29197;44.788;10.366;2023-06-10T02:44:17;22.80;99.90
43607;DHT22;29197;44.788;10.366;2023-06-10T02:47:07;22.90;99.90
43607;DHT22;29197;44.788;10.366;2023-06-10T02:49:56;23.00;99.90
43607;DHT22;29197;44.788;10.366;2023-06-10T02:52:45;23.10;99.90
43607;DHT22;29197;44.788;10.366;2023-06-10T02:55:33;23.10;99.90
43607;DHT22;29197;44.788;10.366;2023-06-10T02:58:22;23.00;99.90
43607;DHT22;29197;44.788;10.366;2023-06-10T03:01:11;23.00;99.90
43607;DHT22;29197;44.788;10.366;2023-06-10T03:04:02;22.90;99.90
43607;DHT22;29197;44.788;10.366;2023-06-10T03:06:50;22.80;99.90
43607;DHT22;29197;44.788;10.366;2023-06-10T03:09:39;22.90;99.90
43607;DHT22;29197;44.788;10.366;2023-06-10T03:12:31;23.00;99.90
43607;DHT22;29197;44.788;10.366;2023-06-10T03:15:20;23.10;99.90
43607;DHT22;29197;44.788;10.366;2023-06-10T03:18:08;23.10;99.90
43607;DHT22;29197;44.788;10.366;2023-06-10T03:23:47;23.20;99.90
43607;DHT22;29197;44.788;10.366;2023-06-10T03:26:36;23.20;99.90
43607;DHT22;29197;44.788;10.366;2023-06-10T03:29:24;23.20;99.90
43607;DHT22;29197;44.788;10.366;2023-06-10T03:32:13;23.10;99.90
43607;DHT22;29197;44.788;10.366;2023-06-10T03:35:02;23.10;99.90
43607;DHT22;29197;44.788;10.366;2023-06-10T03:37:52;23.10;99.90
43607;DHT22;29197;44.788;10.366;2023-06-10T03:40:40;23.00;99.90
43607;DHT22;29197;44.788;10.366;2023-06-10T03:43:29;23.00;99.90
43607;DHT22;29197;44.788;10.366;2023-06-10T03:46:18;23.00;99.90
43607;DHT22;29197;44.788;10.366;2023-06-10T03:49:07;23.10;99.90
43607;DHT22;29197;44.788;10.366;2023-06-10T03:51:56;23.10;99.90
43607;DHT22;29197;44.788;10.366;2023-06-10T03:54:46;23.10;99.90
43607;DHT22;29197;44.788;10.366;2023-06-10T03:57:35;23.20;99.90
43607;DHT22;29197;44.788;10.366;2023-06-10T04:00:23;23.20;99.90
43607;DHT22;29197;44.788;10.366;2023-06-10T04:03:12;23.30;99.90
43607;DHT22;29197;44.788;10.366;2023-06-10T04:06:02;23.20;99.90
43607;DHT22;29197;44.788;10.366;2023-06-10T04:08:52;23.10;99.90
43607;DHT22;29197;44.788;10.366;2023-06-10T04:11:42;23.00;99.90
43607;DHT22;29197;44.788;10.366;2023-06-10T04:14:30;23.00;99.90
43607;DHT22;29197;44.788;10.366;2023-06-10T04:17:19;23.00;99.90
43607;DHT22;29197;44.788;10.366;2023-06-10T04:20:08;22.90;99.90
43607;DHT22;29197;44.788;10.366;2023-06-10T04:22:57;22.90;99.90
43607;DHT22;29197;44.788;10.366;2023-06-10T04:25:46;22.90;99.90
43607;DHT22;29197;44.788;10.366;2023-06-10T04:28:36;22.90;99.90
43607;DHT22;29197;44.788;10.366;2023-06-10T04:31:25;22.90;99.90
43607;DHT22;29197;44.788;10.366;2023-06-10T04:34:14;22.90;99.90
43607;DHT22;29197;44.788;10.366;2023-06-10T04:37:02;22.90;99.90
43607;DHT22;29197;44.788;10.366;2023-06-10T04:39:51;22.90;99.90
43607;DHT22;29197;44.788;10.366;2023-06-10T04:42:39;22.90;99.90
43607;DHT22;29197;44.788;10.366;2023-06-10T04:45:29;22.90;99.90
43607;DHT22;29197;44.788;10.366;2023-06-10T04:48:18;22.90;99.90
43607;DHT22;29197;44.788;10.366;2023-06-10T04:51:06;22.90;99.90
43607;DHT22;29197;44.788;10.366;2023-06-10T04:53:55;22.90;99.90
43607;DHT22;29197;44.788;10.366;2023-06-10T05:42:01;23.30;99.90
43607;DHT22;29197;44.788;10.366;2023-06-10T05:44:50;23.30;99.90
43607;DHT22;29197;44.788;10.366;2023-06-10T05:47:38;23.30;99.90
43607;DHT22;29197;44.788;10.366;2023-06-10T05:50:27;23.30;99.90
43607;DHT22;29197;44.788;10.366;2023-06-10T05:53:17;23.20;99.90
43607;DHT22;29197;44.788;10.366;2023-06-10T05:56:06;23.30;99.90
43607;DHT22;29197;44.788;10.366;2023-06-10T05:58:54;23.30;99.90
43607;DHT22;29197;44.788;10.366;2023-06-10T06:01:43;23.30;99.90
43607;DHT22;29197;44.788;10.366;2023-06-10T06:04:31;23.30;99.90
43607;DHT22;29197;44.788;10.366;2023-06-10T06:07:20;23.40;99.90
43607;DHT22;29197;44.788;10.366;2023-06-10T06:10:10;23.40;99.90
43607;DHT22;29197;44.788;10.366;2023-06-10T06:12:59;23.40;99.90
43607;DHT22;29197;44.788;10.366;2023-06-10T06:15:49;23.40;99.90
43607;DHT22;29197;44.788;10.366;2023-06-10T06:18:38;23.40;99.90
43607;DHT22;29197;44.788;10.366;2023-06-10T06:21:26;23.50;99.90
43607;DHT22;29197;44.788;10.366;2023-06-10T06:24:15;23.50;99.90
43607;DHT22;29197;44.788;10.366;2023-06-10T06:27:06;23.50;99.90
43607;DHT22;29197;44.788;10.366;2023-06-10T06:29:54;23.60;99.90
43607;DHT22;29197;44.788;10.366;2023-06-10T06:32:43;23.60;99.90
43607;DHT22;29197;44.788;10.366;2023-06-10T06:35:33;23.60;99.90
43607;DHT22;29197;44.788;10.366;2023-06-10T06:38:21;23.60;99.90
43607;DHT22;29197;44.788;10.366;2023-06-10T06:41:10;23.70;99.90
43607;DHT22;29197;44.788;10.366;2023-06-10T06:44:00;23.60;99.90
43607;DHT22;29197;44.788;10.366;2023-06-10T06:46:48;23.60;99.90
43607;DHT22;29197;44.788;10.366;2023-06-10T06:49:37;23.60;99.90
43607;DHT22;29197;44.788;10.366;2023-06-10T06:52:25;23.50;99.90
43607;DHT22;29197;44.788;10.366;2023-06-10T06:55:14;23.60;99.90
43607;DHT22;29197;44.788;10.366;2023-06-10T06:58:03;23.50;99.90
43607;DHT22;29197;44.788;10.366;2023-06-10T07:00:53;23.50;99.90
43607;DHT22;29197;44.788;10.366;2023-06-10T07:03:41;23.40;99.90
43607;DHT22;29197;44.788;10.366;2023-06-10T07:06:30;23.40;99.90
43607;DHT22;29197;44.788;10.366;2023-06-10T07:09:21;23.40;99.90
43607;DHT22;29197;44.788;10.366;2023-06-10T07:12:10;23.40;99.90
43607;DHT22;29197;44.788;10.366;2023-06-10T07:17:48;23.30;99.90
43607;DHT22;29197;44.788;10.366;2023-06-10T07:20:37;23.30;99.90
43607;DHT22;29197;44.788;10.366;2023-06-10T07:23:26;23.30;99.90
43607;DHT22;29197;44.788;10.366;2023-06-10T07:26:15;23.30;99.90
43607;DHT22;29197;44.788;10.366;2023-06-10T07:29:03;23.20;99.90
43607;DHT22;29197;44.788;10.366;2023-06-10T07:31:52;23.20;99.90
43607;DHT22;29197;44.788;10.366;2023-06-10T07:34:42;23.20;99.90
43607;DHT22;29197;44.788;10.366;2023-06-10T07:37:30;23.20;99.90
43607;DHT22;29197;44.788;10.366;2023-06-10T07:40:19;23.10;99.90
43607;DHT22;29197;44.788;10.366;2023-06-10T07:43:07;23.10;99.90
43607;DHT22;29197;44.788;10.366;2023-06-10T07:45:56;23.10;99.90
43607;DHT22;29197;44.788;10.366;2023-06-10T07:48:45;23.10;99.90
43607;DHT22;29197;44.788;10.366;2023-06-10T07:51:34;23.10;99.90
43607;DHT22;29197;44.788;10.366;2023-06-10T07:54:23;23.10;99.90
43607;DHT22;29197;44.788;10.366;2023-06-10T07:57:16;23.10;99.90
43607;DHT22;29197;44.788;10.366;2023-06-10T08:00:05;23.10;99.90
43607;DHT22;29197;44.788;10.366;2023-06-10T08:05:44;23.00;99.90
43607;DHT22;29197;44.788;10.366;2023-06-10T08:08:34;23.00;99.90
43607;DHT22;29197;44.788;10.366;2023-06-10T08:11:27;23.00;99.90
43607;DHT22;29197;44.788;10.366;2023-06-10T08:14:16;23.00;99.90
43607;DHT22;29197;44.788;10.366;2023-06-10T08:17:05;22.90;99.90
43607;DHT22;29197;44.788;10.366;2023-06-10T08:19:54;22.90;99.90
43607;DHT22;29197;44.788;10.366;2023-06-10T08:22:42;22.90;99.90
43607;DHT22;29197;44.788;10.366;2023-06-10T08:25:32;22.90;99.90
43607;DHT22;29197;44.788;10.366;2023-06-10T08:28:21;22.90;99.90
43607;DHT22;29197;44.788;10.366;2023-06-10T08:31:09;22.90;99.90
43607;DHT22;29197;44.788;10.366;2023-06-10T09:22:08;22.80;99.90
43607;DHT22;29197;44.788;10.366;2023-06-10T09:25:03;22.90;99.90
43607;DHT22;29197;44.788;10.366;2023-06-10T09:30:42;22.90;99.90
43607;DHT22;29197;44.788;10.366;2023-06-10T09:33:32;22.90;99.90
43607;DHT22;29197;44.788;10.366;2023-06-10T09:36:23;22.90;99.90
43607;DHT22;29197;44.788;10.366;2023-06-10T09:39:17;23.00;99.90
43607;DHT22;29197;44.788;10.366;2023-06-10T09:59:28;23.20;99.90
43607;DHT22;29197;44.788;10.366;2023-06-10T10:02:19;23.50;99.90
43607;DHT22;29197;44.788;10.366;2023-06-10T10:05:08;23.40;99.90
43607;DHT22;29197;44.788;10.366;2023-06-10T10:07:58;23.30;99.90
43607;DHT22;29197;44.788;10.366;2023-06-10T10:10:47;23.30;99.90
43607;DHT22;29197;44.788;10.366;2023-06-10T10:13:36;23.30;99.90
43607;DHT22;29197;44.788;10.366;2023-06-10T10:16:37;23.20;99.90
43607;DHT22;29197;44.788;10.366;2023-06-10T10:19:29;23.20;99.90
43607;DHT22;29197;44.788;10.366;2023-06-10T10:22:23;23.20;99.90
43607;DHT22;29197;44.788;10.366;2023-06-10T10:25:17;23.20;99.90
43607;DHT22;29197;44.788;10.366;2023-06-10T10:28:10;23.00;99.90
43607;DHT22;29197;44.788;10.366;2023-06-10T10:31:07;22.90;99.90
43607;DHT22;29197;44.788;10.366;2023-06-10T10:33:58;23.00;99.90
43607;DHT22;29197;44.788;10.366;2023-06-10T10:36:49;23.10;99.90
43607;DHT22;29197;44.788;10.366;2023-06-10T10:39:39;23.20;99.90
43607;DHT22;29197;44.788;10.366;2023-06-10T10:42:30;23.20;99.90
43607;DHT22;29197;44.788;10.366;2023-06-10T10:45:19;23.20;99.90
43607;DHT22;29197;44.788;10.366;2023-06-10T10:48:09;23.10;99.90
43607;DHT22;29197;44.788;10.366;2023-06-10T10:50:59;23.20;99.90
43607;DHT22;29197;44.788;10.366;2023-06-10T10:54:11;23.20;99.90
43607;DHT22;29197;44.788;10.366;2023-06-10T10:57:12;23.10;99.90
43607;DHT22;29197;44.788;10.366;2023-06-10T11:00:03;23.10;99.90
43607;DHT22;29197;44.788;10.366;2023-06-10T11:02:52;23.30;99.90
43607;DHT22;29197;44.788;10.366;2023-06-10T11:05:45;23.40;99.90
43607;DHT22;29197;44.788;10.366;2023-06-10T11:08:49;23.50;99.90
43607;DHT22;29197;44.788;10.366;2023-06-10T11:11:49;23.50;99.90
43607;DHT22;29197;44.788;10.366;2023-06-10T11:23:43;23.80;99.90
43607;DHT22;29197;44.788;10.366;2023-06-10T11:26:32;23.90;99.90
43607;DHT22;29197;44.788;10.366;2023-06-10T11:29:22;23.90;99.90
43607;DHT22;29197;44.788;10.366;2023-06-10T11:35:00;24.00;99.90
43607;DHT22;29197;44.788;10.366;2023-06-10T11:37:52;24.20;99.90
43607;DHT22;29197;44.788;10.366;2023-06-10T12:00:32;24.50;99.90
43607;DHT22;29197;44.788;10.366;2023-06-10T12:03:21;24.50;99.90
43607;DHT22;29197;44.788;10.366;2023-06-10T12:06:10;24.60;99.90
43607;DHT22;29197;44.788;10.366;2023-06-10T12:08:59;24.70;99.90
43607;DHT22;29197;44.788;10.366;2023-06-10T12:12:10;24.70;99.90
43607;DHT22;29197;44.788;10.366;2023-06-10T12:15:00;24.50;99.90
43607;DHT22;29197;44.788;10.366;2023-06-10T12:23:29;23.90;99.90
43607;DHT22;29197;44.788;10.366;2023-06-10T12:26:19;24.20;99.90
43607;DHT22;29197;44.788;10.366;2023-06-10T12:29:20;24.40;99.90
43607;DHT22;29197;44.788;10.366;2023-06-10T12:32:10;24.40;99.90
43607;DHT22;29197;44.788;10.366;2023-06-10T12:35:02;24.30;99.90
43607;DHT22;29197;44.788;10.366;2023-06-10T12:37:56;24.40;99.90
43607;DHT22;29197;44.788;10.366;2023-06-10T12:40:46;24.30;99.90
43607;DHT22;29197;44.788;10.366;2023-06-10T12:43:35;24.10;99.90
43607;DHT22;29197;44.788;10.366;2023-06-10T12:46:25;24.10;99.90
43607;DHT22;29197;44.788;10.366;2023-06-10T12:49:19;24.20;99.90
43607;DHT22;29197;44.788;10.366;2023-06-10T12:52:08;24.20;99.90
43607;DHT22;29197;44.788;10.366;2023-06-10T12:54:57;24.20;99.90
43607;DHT22;29197;44.788;10.366;2023-06-10T12:57:49;24.30;99.90
43607;DHT22;29197;44.788;10.366;2023-06-10T13:00:38;24.40;99.90
43607;DHT22;29197;44.788;10.366;2023-06-10T13:03:28;24.40;99.90
43607;DHT22;29197;44.788;10.366;2023-06-10T13:06:16;24.10;99.90
43607;DHT22;29197;44.788;10.366;2023-06-10T13:09:06;24.10;99.90
43607;DHT22;29197;44.788;10.366;2023-06-10T13:11:55;24.30;99.90
43607;DHT22;29197;44.788;10.366;2023-06-10T13:14:43;24.30;99.90
43607;DHT22;29197;44.788;10.366;2023-06-10T13:17:32;24.50;99.90
43607;DHT22;29197;44.788;10.366;2023-06-10T13:23:12;24.70;99.90
43607;DHT22;29197;44.788;10.366;2023-06-10T13:59:53;25.30;99.90
43607;DHT22;29197;44.788;10.366;2023-06-10T14:02:43;25.30;99.90
43607;DHT22;29197;44.788;10.366;2023-06-10T14:05:32;25.30;99.90
43607;DHT22;29197;44.788;10.366;2023-06-10T14:08:20;25.30;99.90
43607;DHT22;29197;44.788;10.366;2023-06-10T14:11:11;25.00;99.90
43607;DHT22;29197;44.788;10.366;2023-06-10T14:13:59;25.20;99.90
43607;DHT22;29197;44.788;10.366;2023-06-10T14:16:48;25.30;99.90
43607;DHT22;29197;44.788;10.366;2023-06-10T14:19:37;25.40;99.90
43607;DHT22;29197;44.788;10.366;2023-06-10T14:22:27;25.40;99.90
43607;DHT22;29197;44.788;10.366;2023-06-10T14:25:15;25.50;99.90
43607;DHT22;29197;44.788;10.366;2023-06-10T14:28:06;25.70;99.90
43607;DHT22;29197;44.788;10.366;2023-06-10T14:30:54;25.90;99.90
43607;DHT22;29197;44.788;10.366;2023-06-10T14:33:45;25.90;99.90
43607;DHT22;29197;44.788;10.366;2023-06-10T14:36:33;25.80;99.90
43607;DHT22;29197;44.788;10.366;2023-06-10T14:39:22;25.60;99.90
43607;DHT22;29197;44.788;10.366;2023-06-10T14:42:11;25.70;99.90
43607;DHT22;29197;44.788;10.366;2023-06-10T14:45:00;25.90;99.90
43607;DHT22;29197;44.788;10.366;2023-06-10T14:50:38;26.20;99.90
43607;DHT22;29197;44.788;10.366;2023-06-10T14:53:27;26.10;99.90
43607;DHT22;29197;44.788;10.366;2023-06-10T14:56:16;26.00;99.90
43607;DHT22;29197;44.788;10.366;2023-06-10T14:59:04;25.80;99.90
43607;DHT22;29197;44.788;10.366;2023-06-10T15:01:54;25.90;99.90
43607;DHT22;29197;44.788;10.366;2023-06-10T15:04:43;26.10;99.90
43607;DHT22;29197;44.788;10.366;2023-06-10T15:07:31;26.20;99.90
43607;DHT22;29197;44.788;10.366;2023-06-10T15:10:20;26.40;99.90
43607;DHT22;29197;44.788;10.366;2023-06-10T15:13:10;26.50;99.90
43607;DHT22;29197;44.788;10.366;2023-06-10T15:15:58;26.50;99.90
43607;DHT22;29197;44.788;10.366;2023-06-10T15:18:51;26.40;99.90
43607;DHT22;29197;44.788;10.366;2023-06-10T15:21:40;26.40;99.90
43607;DHT22;29197;44.788;10.366;2023-06-10T15:24:28;26.40;99.90
43607;DHT22;29197;44.788;10.366;2023-06-10T15:27:17;26.40;99.90
43607;DHT22;29197;44.788;10.366;2023-06-10T15:38:35;26.00;99.90
43607;DHT22;29197;44.788;10.366;2023-06-10T15:41:23;26.00;99.90
43607;DHT22;29197;44.788;10.366;2023-06-10T15:44:12;26.10;99.90
43607;DHT22;29197;44.788;10.366;2023-06-10T15:47:01;26.10;99.90
43607;DHT22;29197;44.788;10.366;2023-06-10T15:49:51;26.20;99.90
43607;DHT22;29197;44.788;10.366;2023-06-10T15:52:41;26.20;99.90
43607;DHT22;29197;44.788;10.366;2023-06-10T15:55:29;26.20;99.90
43607;DHT22;29197;44.788;10.366;2023-06-10T15:58:18;26.20;99.90
43607;DHT22;29197;44.788;10.366;2023-06-10T16:01:07;26.20;99.90
43607;DHT22;29197;44.788;10.366;2023-06-10T16:03:56;26.10;99.90
43607;DHT22;29197;44.788;10.366;2023-06-10T16:06:45;26.10;99.90
43607;DHT22;29197;44.788;10.366;2023-06-10T16:09:36;26.10;99.90
43607;DHT22;29197;44.788;10.366;2023-06-10T16:12:25;26.10;99.90
43607;DHT22;29197;44.788;10.366;2023-06-10T16:15:14;26.10;99.90
43607;DHT22;29197;44.788;10.366;2023-06-10T16:18:02;26.10;99.90
43607;DHT22;29197;44.788;10.366;2023-06-10T16:20:51;26.10;99.90
43607;DHT22;29197;44.788;10.366;2023-06-10T16:23:40;26.00;99.90
43607;DHT22;29197;44.788;10.366;2023-06-10T16:26:30;26.00;99.90
43607;DHT22;29197;44.788;10.366;2023-06-10T16:29:18;26.10;99.90
43607;DHT22;29197;44.788;10.366;2023-06-10T16:32:08;26.10;99.90
43607;DHT22;29197;44.788;10.366;2023-06-10T16:34:56;26.00;99.90
43607;DHT22;29197;44.788;10.366;2023-06-10T16:37:45;26.00;99.90
43607;DHT22;29197;44.788;10.366;2023-06-10T16:40:33;25.90;99.90
43607;DHT22;29197;44.788;10.366;2023-06-10T17:00:19;25.70;99.90
43607;DHT22;29197;44.788;10.366;2023-06-10T17:03:08;25.60;99.90
43607;DHT22;29197;44.788;10.366;2023-06-10T17:05:57;25.60;99.90
43607;DHT22;29197;44.788;10.366;2023-06-10T17:08:46;26.30;99.90
43607;DHT22;29197;44.788;10.366;2023-06-10T17:11:34;25.50;99.90
43607;DHT22;29197;44.788;10.366;2023-06-10T17:14:24;25.60;99.90
43607;DHT22;29197;44.788;10.366;2023-06-10T17:17:14;25.50;99.90
43607;DHT22;29197;44.788;10.366;2023-06-10T17:20:04;25.50;99.90
43607;DHT22;29197;44.788;10.366;2023-06-10T17:22:53;25.50;99.90
43607;DHT22;29197;44.788;10.366;2023-06-10T17:25:42;25.50;99.90
43607;DHT22;29197;44.788;10.366;2023-06-10T17:28:30;25.40;99.90
43607;DHT22;29197;44.788;10.366;2023-06-10T17:31:19;25.40;99.90
43607;DHT22;29197;44.788;10.366;2023-06-10T17:34:09;25.40;99.90
43607;DHT22;29197;44.788;10.366;2023-06-10T17:36:58;25.40;99.90
43607;DHT22;29197;44.788;10.366;2023-06-10T17:39:46;25.30;99.90
43607;DHT22;29197;44.788;10.366;2023-06-10T17:42:35;25.20;99.90
43607;DHT22;29197;44.788;10.366;2023-06-10T17:45:23;25.20;99.90
43607;DHT22;29197;44.788;10.366;2023-06-10T17:48:12;25.20;99.90
43607;DHT22;29197;44.788;10.366;2023-06-10T17:51:02;25.20;99.90
43607;DHT22;29197;44.788;10.366;2023-06-10T17:53:50;25.20;99.90
43607;DHT22;29197;44.788;10.366;2023-06-10T17:56:39;25.20;99.90
43607;DHT22;29197;44.788;10.366;2023-06-10T17:59:27;25.30;99.90
43607;DHT22;29197;44.788;10.366;2023-06-10T18:02:16;25.30;99.90
43607;DHT22;29197;44.788;10.366;2023-06-10T18:05:05;25.20;99.90
43607;DHT22;29197;44.788;10.366;2023-06-10T18:07:56;25.10;99.90
43607;DHT22;29197;44.788;10.366;2023-06-10T18:10:44;25.00;99.90
43607;DHT22;29197;44.788;10.366;2023-06-10T18:13:33;25.00;99.90
43607;DHT22;29197;44.788;10.366;2023-06-10T18:16:21;25.00;99.90
43607;DHT22;29197;44.788;10.366;2023-06-10T18:19:10;24.90;99.90
43607;DHT22;29197;44.788;10.366;2023-06-10T18:21:59;24.90;99.90
43607;DHT22;29197;44.788;10.366;2023-06-10T18:24:49;24.90;99.90
43607;DHT22;29197;44.788;10.366;2023-06-10T18:27:38;24.90;99.90
43607;DHT22;29197;44.788;10.366;2023-06-10T18:30:26;24.80;99.90
43607;DHT22;29197;44.788;10.366;2023-06-10T18:33:15;24.80;99.90
43607;DHT22;29197;44.788;10.366;2023-06-10T18:36:04;24.70;99.90
43607;DHT22;29197;44.788;10.366;2023-06-10T18:38:53;24.70;99.90
43607;DHT22;29197;44.788;10.366;2023-06-10T18:41:43;24.70;99.90
43607;DHT22;29197;44.788;10.366;2023-06-10T18:44:32;24.60;99.90
43607;DHT22;29197;44.788;10.366;2023-06-10T18:47:20;24.60;99.90
43607;DHT22;29197;44.788;10.366;2023-06-10T18:50:09;24.60;99.90
43607;DHT22;29197;44.788;10.366;2023-06-10T18:52:58;24.50;99.90
43607;DHT22;29197;44.788;10.366;2023-06-10T18:55:46;24.50;99.90
43607;DHT22;29197;44.788;10.366;2023-06-10T19:01:25;24.80;99.90
43607;DHT22;29197;44.788;10.366;2023-06-10T19:04:14;24.10;99.90
43607;DHT22;29197;44.788;10.366;2023-06-10T19:07:03;24.10;99.90
43607;DHT22;29197;44.788;10.366;2023-06-10T19:09:52;24.10;99.90
43607;DHT22;29197;44.788;10.366;2023-06-10T19:12:40;24.10;99.90
43607;DHT22;29197;44.788;10.366;2023-06-10T19:15:30;24.10;99.90
43607;DHT22;29197;44.788;10.366;2023-06-10T19:18:19;23.90;99.90
43607;DHT22;29197;44.788;10.366;2023-06-10T19:21:08;23.90;99.90
43607;DHT22;29197;44.788;10.366;2023-06-10T19:23:56;23.80;99.90
43607;DHT22;29197;44.788;10.366;2023-06-10T19:26:45;23.80;99.90
43607;DHT22;29197;44.788;10.366;2023-06-10T20:40:04;23.70;99.90
43607;DHT22;29197;44.788;10.366;2023-06-10T20:42:53;23.70;99.90
43607;DHT22;29197;44.788;10.366;2023-06-10T20:48:31;23.50;99.90
43607;DHT22;29197;44.788;10.366;2023-06-10T20:51:19;23.50;99.90
43607;DHT22;29197;44.788;10.366;2023-06-10T20:54:08;23.50;99.90
43607;DHT22;29197;44.788;10.366;2023-06-10T20:56:58;23.50;99.90
43607;DHT22;29197;44.788;10.366;2023-06-10T20:59:47;23.50;99.90
43607;DHT22;29197;44.788;10.366;2023-06-10T21:02:35;23.50;99.90
43607;DHT22;29197;44.788;10.366;2023-06-10T21:05:24;23.50;99.90
43607;DHT22;29197;44.788;10.366;2023-06-10T21:08:12;23.40;99.90
43607;DHT22;29197;44.788;10.366;2023-06-10T21:11:02;23.40;99.90
43607;DHT22;29197;44.788;10.366;2023-06-10T21:16:41;23.20;99.90
43607;DHT22;29197;44.788;10.366;2023-06-10T21:19:29;23.20;99.90
43607;DHT22;29197;44.788;10.366;2023-06-10T21:22:18;23.00;99.90
43607;DHT22;29197;44.788;10.366;2023-06-10T21:25:07;22.80;99.90
43607;DHT22;29197;44.788;10.366;2023-06-10T21:27:57;22.50;99.90
43607;DHT22;29197;44.788;10.366;2023-06-10T21:30:47;22.60;99.90
43607;DHT22;29197;44.788;10.366;2023-06-10T21:33:35;22.70;99.90
43607;DHT22;29197;44.788;10.366;2023-06-10T21:36:24;22.80;99.90
43607;DHT22;29197;44.788;10.366;2023-06-10T21:39:12;22.90;99.90
43607;DHT22;29197;44.788;10.366;2023-06-10T21:42:03;23.00;99.90
43607;DHT22;29197;44.788;10.366;2023-06-10T21:44:51;23.00;99.90
43607;DHT22;29197;44.788;10.366;2023-06-10T21:47:41;23.00;99.90
43607;DHT22;29197;44.788;10.366;2023-06-10T21:50:30;23.00;99.90
43607;DHT22;29197;44.788;10.366;2023-06-10T21:53:19;22.90;99.90
43607;DHT22;29197;44.788;10.366;2023-06-10T21:56:07;23.00;99.90
43607;DHT22;29197;44.788;10.366;2023-06-10T21:58:55;23.00;99.90
43607;DHT22;29197;44.788;10.366;2023-06-10T22:01:44;23.00;99.90
43607;DHT22;29197;44.788;10.366;2023-06-10T22:04:34;23.00;99.90
43607;DHT22;29197;44.788;10.366;2023-06-10T22:07:23;23.00;99.90
43607;DHT22;29197;44.788;10.366;2023-06-10T22:10:13;23.00;99.90
43607;DHT22;29197;44.788;10.366;2023-06-10T22:13:01;23.00;99.90
43607;DHT22;29197;44.788;10.366;2023-06-10T22:15:50;23.00;99.90
43607;DHT22;29197;44.788;10.366;2023-06-10T22:18:38;23.00;99.90
43607;DHT22;29197;44.788;10.366;2023-06-10T22:21:28;23.00;99.90
43607;DHT22;29197;44.788;10.366;2023-06-10T22:24:17;23.00;99.90
43607;DHT22;29197;44.788;10.366;2023-06-10T22:27:07;22.90;99.90
43607;DHT22;29197;44.788;10.366;2023-06-10T22:29:55;22.90;99.90
43607;DHT22;29197;44.788;10.366;2023-06-10T22:32:44;22.80;99.90
43607;DHT22;29197;44.788;10.366;2023-06-10T22:35:33;22.80;99.90
43607;DHT22;29197;44.788;10.366;2023-06-10T22:38:23;22.70;99.90
43607;DHT22;29197;44.788;10.366;2023-06-10T22:41:12;22.70;99.90
43607;DHT22;29197;44.788;10.366;2023-06-10T22:44:00;22.70;99.90
43607;DHT22;29197;44.788;10.366;2023-06-10T22:46:49;22.70;99.90
43607;DHT22;29197;44.788;10.366;2023-06-10T22:49:37;22.70;99.90